PAL714 RPLL-RPVE
Flight info
| Callsign | PAL714 |
|---|---|
| Flight time | N/A |
| Altitude | 21000 |
| Route | VERDE2R VERDE W24 TAPER TAPER7A |
| Aircraft | A21N/M-SDE2E3FGHIRWXY/LB1 |
Departure
| Time | N/A |
|---|---|
| Airport | Ninoy Aquino International Airport (RPLL) |
Arrival
| Time | 2026-05-01 07:26 |
|---|---|
| Airport | Godofredo P. Ramos Airport (RPVE) |
| Time | Latitude | Longitude | Altitude | Speed | Heading |
|---|---|---|---|---|---|
| 2026-05-01 07:23 | 11.88336 | 121.87192 | 1670 ft | 139 kts | 63° |
| 2026-05-01 07:23 | 11.89205 | 121.88910 | 1317 ft | 135 kts | 63° |
| 2026-05-01 07:24 | 11.89625 | 121.89741 | 1103 ft | 131 kts | 60° |
| 2026-05-01 07:24 | 11.90044 | 121.90595 | 962 ft | 140 kts | 61° |
| 2026-05-01 07:24 | 11.90482 | 121.91455 | 765 ft | 131 kts | 61° |
| 2026-05-01 07:24 | 11.90899 | 121.92292 | 604 ft | 138 kts | 63° |
| 2026-05-01 07:25 | 11.91313 | 121.93125 | 413 ft | 130 kts | 63° |
| 2026-05-01 07:25 | 11.91747 | 121.93984 | 238 ft | 135 kts | 63° |
| 2026-05-01 07:25 | 11.92174 | 121.94837 | 94 ft | 132 kts | 64° |
| 2026-05-01 07:25 | 11.92570 | 121.95622 | 28 ft | 100 kts | 63° |
| 2026-05-01 07:26 | 11.92773 | 121.96029 | 27 ft | 47 kts | 63° |
| 2026-05-01 07:26 | 11.92887 | 121.96255 | 28 ft | 19 kts | 62° |
| 2026-05-01 07:26 | 11.92932 | 121.96345 | 26 ft | 11 kts | 63° |
| 2026-05-01 07:26 | 11.92961 | 121.96403 | 29 ft | 8 kts | 63° |
| 2026-05-01 07:27 | 11.92968 | 121.96446 | 27 ft | 4 kts | 103° |
| 2026-05-01 07:27 | 11.92943 | 121.96468 | 29 ft | 5 kts | 149° |
| 2026-05-01 07:27 | 11.92912 | 121.96483 | 26 ft | 5 kts | 153° |
| 2026-05-01 07:27 | 11.92875 | 121.96502 | 26 ft | 7 kts | 153° |
| 2026-05-01 07:28 | 11.92830 | 121.96526 | 27 ft | 6 kts | 153° |
| 2026-05-01 07:28 | 11.92794 | 121.96515 | 27 ft | 6 kts | 234° |
| 2026-05-01 07:28 | 11.92772 | 121.96468 | 27 ft | 9 kts | 243° |
| 2026-05-01 07:28 | 11.92745 | 121.96423 | 27 ft | 3 kts | 221° |
| 2026-05-01 07:29 | 11.92724 | 121.96429 | 27 ft | 4 kts | 154° |
| 2026-05-01 07:29 | 11.92709 | 121.96437 | 27 ft | 0 kts | 153° |
| 2026-05-01 07:29 | 11.92706 | 121.96438 | 27 ft | 0 kts | 153° |
| 2026-05-01 07:33 | 11.92172 | 121.94832 | 96 ft | 132 kts | 64° |
| 2026-05-01 07:34 | 11.92567 | 121.95618 | 28 ft | 100 kts | 63° |